sensor_id;sensor_type;location;lat;lon;timestamp;pressure;altitude;pressure_sealevel;temperature
62611;BMP280;48683;48.084;17.272;2023-09-18T00:02:11;100431.06;;;18.49
62611;BMP280;48683;48.084;17.272;2023-09-18T00:04:37;100434.25;;;18.61
62611;BMP280;48683;48.084;17.272;2023-09-18T00:07:02;100413.34;;;18.45
62611;BMP280;48683;48.084;17.272;2023-09-18T00:09:27;100431.22;;;18.59
62611;BMP280;48683;48.084;17.272;2023-09-18T00:11:53;100420.00;;;18.44
62611;BMP280;48683;48.084;17.272;2023-09-18T00:14:18;100422.03;;;18.40
62611;BMP280;48683;48.084;17.272;2023-09-18T00:16:43;100414.94;;;18.30
62611;BMP280;48683;48.084;17.272;2023-09-18T00:19:09;100425.34;;;18.19
62611;BMP280;48683;48.084;17.272;2023-09-18T00:21:36;100417.44;;;18.24
62611;BMP280;48683;48.084;17.272;2023-09-18T00:24:01;100431.91;;;18.34
62611;BMP280;48683;48.084;17.272;2023-09-18T00:26:27;100403.00;;;18.27
62611;BMP280;48683;48.084;17.272;2023-09-18T00:28:52;100407.53;;;18.18
62611;BMP280;48683;48.084;17.272;2023-09-18T00:31:19;100405.69;;;18.15
62611;BMP280;48683;48.084;17.272;2023-09-18T00:33:44;100409.72;;;18.23
62611;BMP280;48683;48.084;17.272;2023-09-18T00:36:09;100403.72;;;18.15
62611;BMP280;48683;48.084;17.272;2023-09-18T00:38:35;100420.69;;;18.19
62611;BMP280;48683;48.084;17.272;2023-09-18T00:41:01;100418.84;;;18.16
62611;BMP280;48683;48.084;17.272;2023-09-18T00:43:26;100424.06;;;18.23
62611;BMP280;48683;48.084;17.272;2023-09-18T00:45:51;100413.94;;;18.11
62611;BMP280;48683;48.084;17.272;2023-09-18T00:48:23;100405.66;;;18.02
62611;BMP280;48683;48.084;17.272;2023-09-18T00:50:49;100406.09;;;18.00
62611;BMP280;48683;48.084;17.272;2023-09-18T00:53:17;100416.97;;;18.13
62611;BMP280;48683;48.084;17.272;2023-09-18T00:55:44;100394.78;;;18.02
62611;BMP280;48683;48.084;17.272;2023-09-18T00:58:09;100397.94;;;18.00
62611;BMP280;48683;48.084;17.272;2023-09-18T01:00:35;100411.31;;;18.08
62611;BMP280;48683;48.084;17.272;2023-09-18T01:03:01;100403.38;;;18.00
62611;BMP280;48683;48.084;17.272;2023-09-18T01:05:33;100407.13;;;17.90
62611;BMP280;48683;48.084;17.272;2023-09-18T01:07:58;100420.75;;;18.03
62611;BMP280;48683;48.084;17.272;2023-09-18T01:10:30;100406.16;;;17.84
62611;BMP280;48683;48.084;17.272;2023-09-18T01:13:05;100424.00;;;17.98
62611;BMP280;48683;48.084;17.272;2023-09-18T01:15:41;100417.38;;;17.99
62611;BMP280;48683;48.084;17.272;2023-09-18T01:18:10;100406.91;;;17.85
62611;BMP280;48683;48.084;17.272;2023-09-18T01:20:35;100403.28;;;17.75
62611;BMP280;48683;48.084;17.272;2023-09-18T01:23:01;100409.28;;;17.83
62611;BMP280;48683;48.084;17.272;2023-09-18T01:25:26;100401.38;;;17.88
62611;BMP280;48683;48.084;17.272;2023-09-18T01:27:51;100403.44;;;17.84
62611;BMP280;48683;48.084;17.272;2023-09-18T01:30:17;100400.09;;;17.93
62611;BMP280;48683;48.084;17.272;2023-09-18T01:32:44;100395.13;;;18.04
62611;BMP280;48683;48.084;17.272;2023-09-18T01:35:11;100398.81;;;17.97
62611;BMP280;48683;48.084;17.272;2023-09-18T01:37:37;100402.16;;;17.89
62611;BMP280;48683;48.084;17.272;2023-09-18T01:40:06;100403.84;;;17.83
62611;BMP280;48683;48.084;17.272;2023-09-18T01:42:33;100411.00;;;17.77
62611;BMP280;48683;48.084;17.272;2023-09-18T01:44:59;100407.94;;;17.75
62611;BMP280;48683;48.084;17.272;2023-09-18T01:47:25;100410.84;;;17.68
62611;BMP280;48683;48.084;17.272;2023-09-18T01:49:52;100410.84;;;17.68
62611;BMP280;48683;48.084;17.272;2023-09-18T01:52:17;100405.78;;;17.70
62611;BMP280;48683;48.084;17.272;2023-09-18T01:54:43;100413.75;;;17.61
62611;BMP280;48683;48.084;17.272;2023-09-18T01:57:08;100413.56;;;17.51
62611;BMP280;48683;48.084;17.272;2023-09-18T01:59:34;100431.47;;;17.65
62611;BMP280;48683;48.084;17.272;2023-09-18T02:02:00;100418.91;;;17.55
62611;BMP280;48683;48.084;17.272;2023-09-18T02:04:29;100419.28;;;17.57
62611;BMP280;48683;48.084;17.272;2023-09-18T02:06:54;100402.91;;;17.44
62611;BMP280;48683;48.084;17.272;2023-09-18T02:09:19;100408.78;;;17.43
62611;BMP280;48683;48.084;17.272;2023-09-18T02:11:46;100382.41;;;17.27
62611;BMP280;48683;48.084;17.272;2023-09-18T02:14:12;100386.31;;;17.10
62611;BMP280;48683;48.084;17.272;2023-09-18T02:16:40;100391.84;;;17.06
62611;BMP280;48683;48.084;17.272;2023-09-18T02:19:09;100388.34;;;16.90
62611;BMP280;48683;48.084;17.272;2023-09-18T02:21:36;100385.53;;;16.77
62611;BMP280;48683;48.084;17.272;2023-09-18T02:24:02;100389.53;;;16.73
62611;BMP280;48683;48.084;17.272;2023-09-18T02:26:27;100379.44;;;16.57
62611;BMP280;48683;48.084;17.272;2023-09-18T02:28:54;100386.84;;;16.53
62611;BMP280;48683;48.084;17.272;2023-09-18T02:31:20;100396.78;;;16.59
62611;BMP280;48683;48.084;17.272;2023-09-18T02:33:45;100382.78;;;16.45
62611;BMP280;48683;48.084;17.272;2023-09-18T02:36:12;100386.09;;;16.52
62611;BMP280;48683;48.084;17.272;2023-09-18T02:38:37;100383.78;;;16.51
62611;BMP280;48683;48.084;17.272;2023-09-18T02:41:03;100370.47;;;16.40
62611;BMP280;48683;48.084;17.272;2023-09-18T02:43:28;100363.31;;;16.30
62611;BMP280;48683;48.084;17.272;2023-09-18T02:45:53;100375.63;;;16.35
62611;BMP280;48683;48.084;17.272;2023-09-18T02:48:19;100377.78;;;16.24
62611;BMP280;48683;48.084;17.272;2023-09-18T02:50:45;100382.81;;;16.25
62611;BMP280;48683;48.084;17.272;2023-09-18T02:53:18;100373.22;;;16.21
62611;BMP280;48683;48.084;17.272;2023-09-18T02:55:44;100365.31;;;16.10
62611;BMP280;48683;48.084;17.272;2023-09-18T02:58:10;100385.84;;;16.07
62611;BMP280;48683;48.084;17.272;2023-09-18T03:00:41;100388.56;;;16.07
62611;BMP280;48683;48.084;17.272;2023-09-18T03:03:07;100392.56;;;16.03
62611;BMP280;48683;48.084;17.272;2023-09-18T03:05:32;100383.09;;;15.91
62611;BMP280;48683;48.084;17.272;2023-09-18T03:07:58;100381.13;;;15.92
62611;BMP280;48683;48.084;17.272;2023-09-18T03:10:23;100376.22;;;16.06
62611;BMP280;48683;48.084;17.272;2023-09-18T03:12:49;100390.78;;;16.12
62611;BMP280;48683;48.084;17.272;2023-09-18T03:15:14;100373.59;;;16.03
62611;BMP280;48683;48.084;17.272;2023-09-18T03:17:40;100369.44;;;15.98
62611;BMP280;48683;48.084;17.272;2023-09-18T03:20:07;100383.91;;;16.08
62611;BMP280;48683;48.084;17.272;2023-09-18T03:22:34;100388.94;;;16.09
62611;BMP280;48683;48.084;17.272;2023-09-18T03:25:00;100388.78;;;16.17
62611;BMP280;48683;48.084;17.272;2023-09-18T03:27:31;100364.34;;;16.00
62611;BMP280;48683;48.084;17.272;2023-09-18T03:29:57;100359.06;;;15.93
62611;BMP280;48683;48.084;17.272;2023-09-18T03:32:23;100368.59;;;16.01
62611;BMP280;48683;48.084;17.272;2023-09-18T03:34:51;100372.59;;;16.13
62611;BMP280;48683;48.084;17.272;2023-09-18T03:37:17;100372.44;;;16.20
62611;BMP280;48683;48.084;17.272;2023-09-18T03:39:42;100369.91;;;16.13
62611;BMP280;48683;48.084;17.272;2023-09-18T03:42:08;100346.94;;;16.01
62611;BMP280;48683;48.084;17.272;2023-09-18T03:44:33;100367.75;;;16.04
62611;BMP280;48683;48.084;17.272;2023-09-18T03:46:58;100355.81;;;16.02
62611;BMP280;48683;48.084;17.272;2023-09-18T03:49:24;100368.03;;;16.10
62611;BMP280;48683;48.084;17.272;2023-09-18T03:51:49;100371.44;;;16.14
62611;BMP280;48683;48.084;17.272;2023-09-18T03:54:14;100376.00;;;16.17
62611;BMP280;48683;48.084;17.272;2023-09-18T03:56:40;100360.31;;;16.08
62611;BMP280;48683;48.084;17.272;2023-09-18T03:59:06;100373.38;;;16.13
62611;BMP280;48683;48.084;17.272;2023-09-18T04:01:31;100366.91;;;16.07
62611;BMP280;48683;48.084;17.272;2023-09-18T04:03:56;100363.38;;;16.10
62611;BMP280;48683;48.084;17.272;2023-09-18T04:06:23;100374.91;;;16.14
62611;BMP280;48683;48.084;17.272;2023-09-18T04:08:50;100365.94;;;16.18
62611;BMP280;48683;48.084;17.272;2023-09-18T04:11:16;100363.31;;;16.14
62611;BMP280;48683;48.084;17.272;2023-09-18T04:13:41;100361.41;;;16.11
62611;BMP280;48683;48.084;17.272;2023-09-18T04:16:07;100348.09;;;16.00
62611;BMP280;48683;48.084;17.272;2023-09-18T04:18:33;100349.22;;;16.03
62611;BMP280;48683;48.084;17.272;2023-09-18T04:20:58;100338.53;;;15.96
62611;BMP280;48683;48.084;17.272;2023-09-18T04:23:25;100335.81;;;15.96
62611;BMP280;48683;48.084;17.272;2023-09-18T04:25:52;100347.94;;;16.07
62611;BMP280;48683;48.084;17.272;2023-09-18T04:28:19;100342.88;;;16.09
62611;BMP280;48683;48.084;17.272;2023-09-18T04:30:44;100341.91;;;16.20
62611;BMP280;48683;48.084;17.272;2023-09-18T04:33:11;100341.97;;;16.16
62611;BMP280;48683;48.084;17.272;2023-09-18T04:35:38;100352.25;;;16.25
62611;BMP280;48683;48.084;17.272;2023-09-18T04:38:05;100356.91;;;16.24
62611;BMP280;48683;48.084;17.272;2023-09-18T04:40:31;100337.03;;;16.11
62611;BMP280;48683;48.084;17.272;2023-09-18T04:43:01;100359.75;;;16.17
62611;BMP280;48683;48.084;17.272;2023-09-18T04:45:26;100346.63;;;16.15
62611;BMP280;48683;48.084;17.272;2023-09-18T04:47:53;100356.69;;;16.15
62611;BMP280;48683;48.084;17.272;2023-09-18T04:50:19;100364.31;;;16.20
62611;BMP280;48683;48.084;17.272;2023-09-18T04:52:44;100349.75;;;16.14
62611;BMP280;48683;48.084;17.272;2023-09-18T04:55:10;100369.59;;;16.27
62611;BMP280;48683;48.084;17.272;2023-09-18T04:57:35;100374.81;;;16.38
62611;BMP280;48683;48.084;17.272;2023-09-18T05:00:01;100350.06;;;16.36
62611;BMP280;48683;48.084;17.272;2023-09-18T05:02:26;100347.44;;;16.32
62611;BMP280;48683;48.084;17.272;2023-09-18T05:04:52;100354.63;;;16.39
62611;BMP280;48683;48.084;17.272;2023-09-18T05:07:17;100335.06;;;16.31
62611;BMP280;48683;48.084;17.272;2023-09-18T05:09:43;100336.44;;;16.39
62611;BMP280;48683;48.084;17.272;2023-09-18T05:12:09;100342.53;;;16.43
62611;BMP280;48683;48.084;17.272;2023-09-18T05:14:39;100349.75;;;16.50
62611;BMP280;48683;48.084;17.272;2023-09-18T05:17:05;100347.09;;;16.46
62611;BMP280;48683;48.084;17.272;2023-09-18T05:19:30;100334.84;;;16.42
62611;BMP280;48683;48.084;17.272;2023-09-18T05:21:56;100349.25;;;16.55
62611;BMP280;48683;48.084;17.272;2023-09-18T05:24:21;100351.94;;;16.55
62611;BMP280;48683;48.084;17.272;2023-09-18T05:26:52;100346.75;;;16.64
62611;BMP280;48683;48.084;17.272;2023-09-18T05:29:17;100330.56;;;16.60
62611;BMP280;48683;48.084;17.272;2023-09-18T05:31:43;100337.28;;;16.72
62611;BMP280;48683;48.084;17.272;2023-09-18T05:34:08;100338.63;;;16.80
62611;BMP280;48683;48.084;17.272;2023-09-18T05:36:34;100352.50;;;16.82
62611;BMP280;48683;48.084;17.272;2023-09-18T05:39:00;100341.50;;;16.89
62611;BMP280;48683;48.084;17.272;2023-09-18T05:41:25;100338.09;;;17.01
62611;BMP280;48683;48.084;17.272;2023-09-18T05:43:54;100338.94;;;17.15
62611;BMP280;48683;48.084;17.272;2023-09-18T05:46:19;100343.59;;;17.30
62611;BMP280;48683;48.084;17.272;2023-09-18T05:48:44;100344.72;;;17.45
62611;BMP280;48683;48.084;17.272;2023-09-18T05:51:10;100335.63;;;17.52
62611;BMP280;48683;48.084;17.272;2023-09-18T05:53:35;100331.59;;;17.73
62611;BMP280;48683;48.084;17.272;2023-09-18T05:56:00;100331.50;;;17.76
62611;BMP280;48683;48.084;17.272;2023-09-18T05:58:32;100327.63;;;17.90
62611;BMP280;48683;48.084;17.272;2023-09-18T06:01:00;100329.69;;;17.98
62611;BMP280;48683;48.084;17.272;2023-09-18T06:03:26;100320.59;;;18.05
62611;BMP280;48683;48.084;17.272;2023-09-18T06:05:52;100329.84;;;18.20
62611;BMP280;48683;48.084;17.272;2023-09-18T06:08:18;100317.47;;;18.32
62611;BMP280;48683;48.084;17.272;2023-09-18T06:10:44;100322.16;;;18.44
62611;BMP280;48683;48.084;17.272;2023-09-18T06:13:10;100331.28;;;18.63
62611;BMP280;48683;48.084;17.272;2023-09-18T06:15:35;100326.06;;;18.68
62611;BMP280;48683;48.084;17.272;2023-09-18T06:18:01;100313.97;;;18.82
62611;BMP280;48683;48.084;17.272;2023-09-18T06:20:26;100307.88;;;18.90
62611;BMP280;48683;48.084;17.272;2023-09-18T06:23:12;100316.81;;;19.13
62611;BMP280;48683;48.084;17.272;2023-09-18T06:25:38;100297.78;;;19.13
62611;BMP280;48683;48.084;17.272;2023-09-18T06:28:04;100322.00;;;19.32
62611;BMP280;48683;48.084;17.272;2023-09-18T06:30:30;100306.59;;;19.38
62611;BMP280;48683;48.084;17.272;2023-09-18T06:36:28;100289.28;;;19.67
62611;BMP280;48683;48.084;17.272;2023-09-18T06:39:17;100289.97;;;19.80
62611;BMP280;48683;48.084;17.272;2023-09-18T06:41:43;100262.91;;;19.85
62611;BMP280;48683;48.084;17.272;2023-09-18T06:44:09;100268.28;;;19.98
62611;BMP280;48683;48.084;17.272;2023-09-18T06:46:34;100278.41;;;19.98
62611;BMP280;48683;48.084;17.272;2023-09-18T06:48:59;100265.41;;;20.02
62611;BMP280;48683;48.084;17.272;2023-09-18T06:51:26;100262.13;;;20.07
62611;BMP280;48683;48.084;17.272;2023-09-18T06:53:52;100246.72;;;20.22
62611;BMP280;48683;48.084;17.272;2023-09-18T06:56:18;100254.81;;;20.34
62611;BMP280;48683;48.084;17.272;2023-09-18T06:58:43;100248.47;;;20.47
62611;BMP280;48683;48.084;17.272;2023-09-18T07:01:08;100232.56;;;20.45
62611;BMP280;48683;48.084;17.272;2023-09-18T07:03:35;100244.59;;;20.66
62611;BMP280;48683;48.084;17.272;2023-09-18T07:06:01;100241.25;;;20.80
62611;BMP280;48683;48.084;17.272;2023-09-18T07:08:27;100255.22;;;21.00
62611;BMP280;48683;48.084;17.272;2023-09-18T07:10:52;100247.63;;;21.04
62611;BMP280;48683;48.084;17.272;2023-09-18T07:13:17;100256.75;;;21.19
62611;BMP280;48683;48.084;17.272;2023-09-18T07:15:43;100269.78;;;21.34
62611;BMP280;48683;48.084;17.272;2023-09-18T07:18:09;100282.66;;;21.51
62611;BMP280;48683;48.084;17.272;2023-09-18T07:20:39;100277.31;;;21.57
62611;BMP280;48683;48.084;17.272;2023-09-18T07:23:08;100255.91;;;21.64
62611;BMP280;48683;48.084;17.272;2023-09-18T07:25:34;100254.25;;;21.67
62611;BMP280;48683;48.084;17.272;2023-09-18T07:28:00;100251.16;;;21.83
62611;BMP280;48683;48.084;17.272;2023-09-18T07:30:25;100255.50;;;22.08
62611;BMP280;48683;48.084;17.272;2023-09-18T07:32:54;100258.63;;;22.24
62611;BMP280;48683;48.084;17.272;2023-09-18T07:35:21;100255.75;;;22.19
62611;BMP280;48683;48.084;17.272;2023-09-18T07:37:48;100270.03;;;22.47
62611;BMP280;48683;48.084;17.272;2023-09-18T07:40:13;100261.31;;;22.57
62611;BMP280;48683;48.084;17.272;2023-09-18T07:42:39;100258.88;;;22.59
62611;BMP280;48683;48.084;17.272;2023-09-18T07:45:04;100264.59;;;22.70
62611;BMP280;48683;48.084;17.272;2023-09-18T07:47:30;100257.72;;;22.75
62611;BMP280;48683;48.084;17.272;2023-09-18T07:49:56;100265.84;;;22.84
62611;BMP280;48683;48.084;17.272;2023-09-18T07:52:22;100267.59;;;22.96
62611;BMP280;48683;48.084;17.272;2023-09-18T07:54:47;100265.56;;;23.06
62611;BMP280;48683;48.084;17.272;2023-09-18T07:57:12;100252.50;;;23.01
62611;BMP280;48683;48.084;17.272;2023-09-18T07:59:38;100256.69;;;23.11
62611;BMP280;48683;48.084;17.272;2023-09-18T08:02:06;100253.19;;;23.10
62611;BMP280;48683;48.084;17.272;2023-09-18T08:04:31;100256.41;;;23.09
62611;BMP280;48683;48.084;17.272;2023-09-18T08:06:57;100247.53;;;23.14
62611;BMP280;48683;48.084;17.272;2023-09-18T08:09:22;100236.69;;;23.19
62611;BMP280;48683;48.084;17.272;2023-09-18T08:11:49;100254.44;;;23.24
62611;BMP280;48683;48.084;17.272;2023-09-18T08:14:15;100250.84;;;23.33
62611;BMP280;48683;48.084;17.272;2023-09-18T08:16:40;100243.28;;;23.28
62611;BMP280;48683;48.084;17.272;2023-09-18T08:19:06;100238.00;;;23.39
62611;BMP280;48683;48.084;17.272;2023-09-18T08:21:32;100227.47;;;23.46
62611;BMP280;48683;48.084;17.272;2023-09-18T08:23:58;100236.91;;;23.75
62611;BMP280;48683;48.084;17.272;2023-09-18T08:26:24;100233.31;;;23.69
62611;BMP280;48683;48.084;17.272;2023-09-18T08:28:50;100230.97;;;23.61
62611;BMP280;48683;48.084;17.272;2023-09-18T08:31:16;100222.75;;;23.61
62611;BMP280;48683;48.084;17.272;2023-09-18T08:33:44;100223.03;;;23.63
62611;BMP280;48683;48.084;17.272;2023-09-18T08:36:17;100232.06;;;23.70
62611;BMP280;48683;48.084;17.272;2023-09-18T08:38:43;100225.63;;;23.87
62611;BMP280;48683;48.084;17.272;2023-09-18T08:41:12;100223.38;;;23.86
62611;BMP280;48683;48.084;17.272;2023-09-18T08:43:40;100219.56;;;23.98
62611;BMP280;48683;48.084;17.272;2023-09-18T08:46:09;100201.47;;;24.06
62611;BMP280;48683;48.084;17.272;2023-09-18T08:48:34;100209.84;;;24.32
62611;BMP280;48683;48.084;17.272;2023-09-18T08:51:06;100196.00;;;24.41
62611;BMP280;48683;48.084;17.272;2023-09-18T08:53:32;100197.16;;;24.54
62611;BMP280;48683;48.084;17.272;2023-09-18T08:55:59;100185.00;;;24.61
62611;BMP280;48683;48.084;17.272;2023-09-18T08:58:28;100184.56;;;24.63
62611;BMP280;48683;48.084;17.272;2023-09-18T09:00:53;100190.63;;;24.72
62611;BMP280;48683;48.084;17.272;2023-09-18T09:03:18;100174.66;;;24.71
62611;BMP280;48683;48.084;17.272;2023-09-18T09:05:44;100161.31;;;24.84
62611;BMP280;48683;48.084;17.272;2023-09-18T09:08:09;100164.91;;;24.90
62611;BMP280;48683;48.084;17.272;2023-09-18T09:10:34;100163.88;;;25.13
62611;BMP280;48683;48.084;17.272;2023-09-18T09:13:00;100162.53;;;25.29
62611;BMP280;48683;48.084;17.272;2023-09-18T09:15:47;100162.53;;;25.29
62611;BMP280;48683;48.084;17.272;2023-09-18T09:18:12;100171.69;;;25.51
62611;BMP280;48683;48.084;17.272;2023-09-18T09:20:39;100152.16;;;25.49
62611;BMP280;48683;48.084;17.272;2023-09-18T09:23:09;100158.75;;;25.58
62611;BMP280;48683;48.084;17.272;2023-09-18T09:25:36;100155.69;;;25.50
62611;BMP280;48683;48.084;17.272;2023-09-18T09:28:06;100155.31;;;25.63
62611;BMP280;48683;48.084;17.272;2023-09-18T09:30:33;100138.69;;;25.83
62611;BMP280;48683;48.084;17.272;2023-09-18T09:32:59;100133.06;;;26.09
62611;BMP280;48683;48.084;17.272;2023-09-18T09:35:29;100122.91;;;26.20
62611;BMP280;48683;48.084;17.272;2023-09-18T09:38:00;100130.34;;;26.14
62611;BMP280;48683;48.084;17.272;2023-09-18T09:40:27;100134.88;;;26.17
62611;BMP280;48683;48.084;17.272;2023-09-18T09:42:57;100126.34;;;26.15
62611;BMP280;48683;48.084;17.272;2023-09-18T09:45:27;100117.53;;;26.00
62611;BMP280;48683;48.084;17.272;2023-09-18T09:47:54;100114.81;;;26.06
62611;BMP280;48683;48.084;17.272;2023-09-18T09:50:20;100107.53;;;25.97
62611;BMP280;48683;48.084;17.272;2023-09-18T09:52:52;100115.00;;;25.96
62611;BMP280;48683;48.084;17.272;2023-09-18T09:55:29;100097.53;;;25.99
62611;BMP280;48683;48.084;17.272;2023-09-18T10:00:43;100098.69;;;26.35
62611;BMP280;48683;48.084;17.272;2023-09-18T10:03:12;100109.22;;;26.54
62611;BMP280;48683;48.084;17.272;2023-09-18T10:05:39;100095.75;;;26.56
62611;BMP280;48683;48.084;17.272;2023-09-18T10:08:12;100097.75;;;26.61
62611;BMP280;48683;48.084;17.272;2023-09-18T10:10:43;100089.75;;;26.57
62611;BMP280;48683;48.084;17.272;2023-09-18T10:13:12;100085.28;;;26.76
62611;BMP280;48683;48.084;17.272;2023-09-18T10:15:42;100078.47;;;26.55
62611;BMP280;48683;48.084;17.272;2023-09-18T10:18:31;100085.72;;;26.58
62611;BMP280;48683;48.084;17.272;2023-09-18T10:21:26;100080.75;;;26.57
62611;BMP280;48683;48.084;17.272;2023-09-18T10:24:04;100079.97;;;26.45
62611;BMP280;48683;48.084;17.272;2023-09-18T10:26:32;100069.47;;;26.60
62611;BMP280;48683;48.084;17.272;2023-09-18T10:29:03;100060.19;;;26.58
62611;BMP280;48683;48.084;17.272;2023-09-18T10:31:32;100052.66;;;26.36
62611;BMP280;48683;48.084;17.272;2023-09-18T10:34:00;100052.69;;;26.58
62611;BMP280;48683;48.084;17.272;2023-09-18T10:36:27;100051.72;;;26.61
62611;BMP280;48683;48.084;17.272;2023-09-18T10:38:55;100052.72;;;26.75
62611;BMP280;48683;48.084;17.272;2023-09-18T10:41:22;100055.75;;;26.77
62611;BMP280;48683;48.084;17.272;2023-09-18T10:43:47;100066.97;;;26.62
62611;BMP280;48683;48.084;17.272;2023-09-18T10:46:15;100057.72;;;26.49
62611;BMP280;48683;48.084;17.272;2023-09-18T10:48:44;100032.16;;;26.42
62611;BMP280;48683;48.084;17.272;2023-09-18T10:51:11;100030.69;;;26.47
62611;BMP280;48683;48.084;17.272;2023-09-18T10:53:39;100025.44;;;26.49
62611;BMP280;48683;48.084;17.272;2023-09-18T10:56:04;100019.94;;;26.55
62611;BMP280;48683;48.084;17.272;2023-09-18T10:58:30;100026.19;;;26.55
62611;BMP280;48683;48.084;17.272;2023-09-18T11:00:56;100015.19;;;26.61
62611;BMP280;48683;48.084;17.272;2023-09-18T11:03:23;100011.16;;;26.62
62611;BMP280;48683;48.084;17.272;2023-09-18T11:05:49;100017.69;;;26.70
62611;BMP280;48683;48.084;17.272;2023-09-18T11:08:34;100005.47;;;26.87
62611;BMP280;48683;48.084;17.272;2023-09-18T11:11:07;99996.69;;;26.95
62611;BMP280;48683;48.084;17.272;2023-09-18T11:13:42;99991.41;;;27.13
62611;BMP280;48683;48.084;17.272;2023-09-18T11:18:51;99979.75;;;27.65
62611;BMP280;48683;48.084;17.272;2023-09-18T11:21:25;99974.06;;;27.46
62611;BMP280;48683;48.084;17.272;2023-09-18T11:24:01;99978.56;;;27.38
62611;BMP280;48683;48.084;17.272;2023-09-18T11:26:30;99951.06;;;27.27
62611;BMP280;48683;48.084;17.272;2023-09-18T11:28:59;99939.28;;;27.21
62611;BMP280;48683;48.084;17.272;2023-09-18T11:31:50;99956.72;;;27.57
62611;BMP280;48683;48.084;17.272;2023-09-18T11:36:44;99947.16;;;27.69
62611;BMP280;48683;48.084;17.272;2023-09-18T11:39:10;99954.13;;;27.75
62611;BMP280;48683;48.084;17.272;2023-09-18T11:41:37;99950.94;;;27.66
62611;BMP280;48683;48.084;17.272;2023-09-18T11:46:32;99947.16;;;27.63
62611;BMP280;48683;48.084;17.272;2023-09-18T11:48:58;99956.22;;;27.58
62611;BMP280;48683;48.084;17.272;2023-09-18T11:51:24;99956.22;;;27.58
62611;BMP280;48683;48.084;17.272;2023-09-18T11:53:55;99949.22;;;27.57
62611;BMP280;48683;48.084;17.272;2023-09-18T11:56:23;99942.88;;;27.68
62611;BMP280;48683;48.084;17.272;2023-09-18T11:58:51;99955.50;;;27.99
62611;BMP280;48683;48.084;17.272;2023-09-18T12:01:18;99943.69;;;28.04
62611;BMP280;48683;48.084;17.272;2023-09-18T12:03:43;99939.53;;;27.86
62611;BMP280;48683;48.084;17.272;2023-09-18T12:06:10;99929.56;;;27.77
62611;BMP280;48683;48.084;17.272;2023-09-18T12:08:39;99923.72;;;27.92
62611;BMP280;48683;48.084;17.272;2023-09-18T12:11:05;99920.00;;;27.84
62611;BMP280;48683;48.084;17.272;2023-09-18T12:13:31;99935.91;;;28.02
62611;BMP280;48683;48.084;17.272;2023-09-18T12:16:04;99931.00;;;27.90
62611;BMP280;48683;48.084;17.272;2023-09-18T12:18:33;99926.50;;;27.87
62611;BMP280;48683;48.084;17.272;2023-09-18T12:21:02;99918.22;;;27.87
62611;BMP280;48683;48.084;17.272;2023-09-18T12:23:36;99915.22;;;27.84
62611;BMP280;48683;48.084;17.272;2023-09-18T12:26:03;99924.28;;;27.79
62611;BMP280;48683;48.084;17.272;2023-09-18T12:28:29;99921.31;;;27.72
62611;BMP280;48683;48.084;17.272;2023-09-18T12:30:54;99919.16;;;28.00
62611;BMP280;48683;48.084;17.272;2023-09-18T12:33:24;99915.94;;;28.32
62611;BMP280;48683;48.084;17.272;2023-09-18T12:35:50;99902.97;;;28.21
62611;BMP280;48683;48.084;17.272;2023-09-18T12:38:17;99902.97;;;28.21
62611;BMP280;48683;48.084;17.272;2023-09-18T12:40:44;99902.50;;;28.17
62611;BMP280;48683;48.084;17.272;2023-09-18T12:43:12;99891.72;;;28.13
62611;BMP280;48683;48.084;17.272;2023-09-18T12:45:37;99889.50;;;28.12
62611;BMP280;48683;48.084;17.272;2023-09-18T12:48:10;99894.66;;;28.26
62611;BMP280;48683;48.084;17.272;2023-09-18T12:50:35;99889.44;;;28.17
62611;BMP280;48683;48.084;17.272;2023-09-18T12:53:11;99885.50;;;28.13
62611;BMP280;48683;48.084;17.272;2023-09-18T12:55:37;99886.53;;;28.04
62611;BMP280;48683;48.084;17.272;2023-09-18T12:58:02;99884.81;;;28.01
62611;BMP280;48683;48.084;17.272;2023-09-18T13:00:37;99867.06;;;27.91
62611;BMP280;48683;48.084;17.272;2023-09-18T13:03:03;99873.75;;;28.01
62611;BMP280;48683;48.084;17.272;2023-09-18T13:05:31;99865.72;;;28.03
62611;BMP280;48683;48.084;17.272;2023-09-18T13:08:04;99860.78;;;27.91
62611;BMP280;48683;48.084;17.272;2023-09-18T13:10:48;99858.84;;;27.86
62611;BMP280;48683;48.084;17.272;2023-09-18T13:13:17;99863.41;;;27.77
62611;BMP280;48683;48.084;17.272;2023-09-18T13:15:43;99846.84;;;27.77
62611;BMP280;48683;48.084;17.272;2023-09-18T13:18:11;99854.78;;;27.87
62611;BMP280;48683;48.084;17.272;2023-09-18T13:20:37;99857.28;;;27.90
62611;BMP280;48683;48.084;17.272;2023-09-18T13:23:02;99860.94;;;28.04
62611;BMP280;48683;48.084;17.272;2023-09-18T13:25:33;99853.53;;;28.23
62611;BMP280;48683;48.084;17.272;2023-09-18T13:28:04;99835.44;;;28.27
62611;BMP280;48683;48.084;17.272;2023-09-18T13:30:31;99850.31;;;28.19
62611;BMP280;48683;48.084;17.272;2023-09-18T13:33:08;99843.16;;;28.05
62611;BMP280;48683;48.084;17.272;2023-09-18T13:35:39;99852.66;;;28.04
62611;BMP280;48683;48.084;17.272;2023-09-18T13:38:05;99837.25;;;27.90
62611;BMP280;48683;48.084;17.272;2023-09-18T13:40:32;99837.72;;;27.94
62611;BMP280;48683;48.084;17.272;2023-09-18T13:42:59;99848.69;;;27.99
62611;BMP280;48683;48.084;17.272;2023-09-18T13:45:25;99836.53;;;27.83
62611;BMP280;48683;48.084;17.272;2023-09-18T13:47:50;99840.34;;;27.75
62611;BMP280;48683;48.084;17.272;2023-09-18T13:50:15;99822.53;;;27.76
62611;BMP280;48683;48.084;17.272;2023-09-18T13:52:41;99814.97;;;27.82
62611;BMP280;48683;48.084;17.272;2023-09-18T13:55:07;99817.69;;;27.88
62611;BMP280;48683;48.084;17.272;2023-09-18T13:57:36;99818.75;;;27.79
62611;BMP280;48683;48.084;17.272;2023-09-18T14:00:03;99817.97;;;27.84
62611;BMP280;48683;48.084;17.272;2023-09-18T14:02:32;99796.97;;;27.81